Terminal Aerodrome Forecast
Issued by NWS

Home | Current Version | Previous Version | Text Only | Print | Product List | Glossary On
Versions: 1 2 3 4 5 6 7 8 9 10 11 12 13 14 15 16 17
951
FTUS43 KLSX 231134
TAFUIN
TAF
KUIN 231134Z 2312/2412 11004KT P6SM -SHRA BKN020 OVC040
      TEMPO 2312/2314 2SM -RA
     FM231600 06005KT P6SM VCSH OVC015
     FM231800 32012G20KT P6SM -SHRA VCTS OVC035CB
     FM240000 32009KT P6SM BKN050
     FM240800 30004KT P6SM BKN015=

USA.gov is the U.S. government's official web portal to all federal, state and local government web resources and services.